aviador You're here:

KGSO Decoded Metar

GREENSBORO in NC, USA
Report Time2017-11-21 05:54:00
UTC Time2017-11-21 06:12:43
Flight Rules vfr VFR
Wind210° at 04 kt
W.Decomp.*RWY 23: 3.9 kt HW 0.8 kt LCW
RWY 14: 0.8 kt HW 3.9 kt RCW
W.Rank210° ranks 2
Current wind is below 210° avg. (6.5)
Visibility9999 m
Phenomena:N/A
Clouds:Few 250 Hf
Expected CloudBase > 2,400 ft AGL from Temp-Dew spread
CeilingNone
Temp03°C (ISA -10)
Dew Point-3°C (65% RH)
AAT-0.8°C
QNH1023 hPa
Density Alt-604 ft
Elevation902 ft
Report Wrong Elevation
Raw Report
KGSO 210554Z 21004KT 10SM FEW250 03/M03 A3020 RMK AO2 SLP227
T00331033 10078 20028 58003=

Extra information for KGSO:More info

Metar Taf Metar & Taf Last 4 Metars F.Rules Stats Wind Profile Meteogram Temp Stats Airport Information Weather charts Add Link Nearby VenuesMetar ALERT Operation Metar Decoded Social comments

AIRNAV info for KGSO